sensor_id;sensor_type;location;lat;lon;timestamp;pressure;altitude;pressure_sealevel;temperature;humidity
9239;BME280;4654;43.242;27.976;2024-02-28T00:01:17;99500.38;;;8.23;nan
9239;BME280;4654;43.242;27.976;2024-02-28T00:03:44;99510.44;;;8.31;nan
9239;BME280;4654;43.242;27.976;2024-02-28T00:06:16;99507.03;;;8.35;nan
9239;BME280;4654;43.242;27.976;2024-02-28T00:08:43;99516.75;;;8.35;nan
9239;BME280;4654;43.242;27.976;2024-02-28T00:11:10;99509.66;;;8.35;nan
9239;BME280;4654;43.242;27.976;2024-02-28T00:13:37;99509.53;;;8.20;nan
9239;BME280;4654;43.242;27.976;2024-02-28T00:16:05;99504.97;;;8.11;nan
9239;BME280;4654;43.242;27.976;2024-02-28T00:18:32;99502.31;;;8.06;nan
9239;BME280;4654;43.242;27.976;2024-02-28T00:20:59;99500.47;;;8.06;nan
9239;BME280;4654;43.242;27.976;2024-02-28T00:23:28;99503.88;;;8.07;nan
9239;BME280;4654;43.242;27.976;2024-02-28T00:25:55;99499.91;;;8.04;nan
9239;BME280;4654;43.242;27.976;2024-02-28T00:28:22;99499.69;;;8.06;nan
9239;BME280;4654;43.242;27.976;2024-02-28T00:30:49;99504.88;;;8.01;nan
9239;BME280;4654;43.242;27.976;2024-02-28T00:33:16;99499.91;;;8.04;nan
9239;BME280;4654;43.242;27.976;2024-02-28T00:35:43;99502.31;;;8.06;nan
9239;BME280;4654;43.242;27.976;2024-02-28T00:38:11;99504.44;;;8.09;nan
9239;BME280;4654;43.242;27.976;2024-02-28T00:40:39;99494.25;;;8.12;nan
9239;BME280;4654;43.242;27.976;2024-02-28T00:43:07;99497.59;;;8.08;nan
9239;BME280;4654;43.242;27.976;2024-02-28T00:45:34;99490.56;;;8.08;nan
9239;BME280;4654;43.242;27.976;2024-02-28T00:48:01;99488.53;;;8.15;nan
9239;BME280;4654;43.242;27.976;2024-02-28T00:50:28;99493.59;;;8.27;nan
9239;BME280;4654;43.242;27.976;2024-02-28T00:52:55;99494.91;;;8.24;nan
9239;BME280;4654;43.242;27.976;2024-02-28T00:55:22;99504.34;;;8.25;nan
9239;BME280;4654;43.242;27.976;2024-02-28T00:57:51;99500.34;;;8.18;nan
9239;BME280;4654;43.242;27.976;2024-02-28T01:00:18;99499.59;;;8.22;nan
9239;BME280;4654;43.242;27.976;2024-02-28T01:02:46;99513.44;;;8.18;nan
9239;BME280;4654;43.242;27.976;2024-02-28T01:05:13;99509.16;;;8.12;nan
9239;BME280;4654;43.242;27.976;2024-02-28T01:07:40;99512.19;;;7.99;nan
9239;BME280;4654;43.242;27.976;2024-02-28T01:10:07;99501.81;;;7.82;nan
9239;BME280;4654;43.242;27.976;2024-02-28T01:12:35;99504.47;;;7.87;nan
9239;BME280;4654;43.242;27.976;2024-02-28T01:15:04;99506.91;;;7.94;nan
9239;BME280;4654;43.242;27.976;2024-02-28T01:17:31;99501.19;;;7.97;nan
9239;BME280;4654;43.242;27.976;2024-02-28T01:19:58;99507.69;;;7.94;nan
9239;BME280;4654;43.242;27.976;2024-02-28T01:22:26;99502.09;;;7.86;nan
9239;BME280;4654;43.242;27.976;2024-02-28T01:24:53;99513.34;;;7.86;nan
9239;BME280;4654;43.242;27.976;2024-02-28T01:27:20;99514.09;;;7.82;nan
9239;BME280;4654;43.242;27.976;2024-02-28T01:29:47;99507.69;;;7.94;nan
9239;BME280;4654;43.242;27.976;2024-02-28T01:32:16;99507.94;;;7.93;nan
9239;BME280;4654;43.242;27.976;2024-02-28T01:34:43;99512.00;;;7.84;nan
9239;BME280;4654;43.242;27.976;2024-02-28T01:37:10;99515.63;;;7.78;nan
9239;BME280;4654;43.242;27.976;2024-02-28T01:39:38;99503.44;;;7.88;nan
9239;BME280;4654;43.242;27.976;2024-02-28T01:42:05;99502.72;;;7.93;nan
9239;BME280;4654;43.242;27.976;2024-02-28T01:44:34;99503.97;;;7.90;nan
9239;BME280;4654;43.242;27.976;2024-02-28T01:47:06;99490.31;;;7.83;nan
9239;BME280;4654;43.242;27.976;2024-02-28T01:49:34;99509.75;;;7.92;nan
9239;BME280;4654;43.242;27.976;2024-02-28T01:52:02;99511.09;;;7.95;nan
9239;BME280;4654;43.242;27.976;2024-02-28T01:54:30;99505.59;;;7.96;nan
9239;BME280;4654;43.242;27.976;2024-02-28T01:56:58;99515.25;;;7.91;nan
9239;BME280;4654;43.242;27.976;2024-02-28T01:59:26;99509.53;;;7.94;nan
9239;BME280;4654;43.242;27.976;2024-02-28T02:01:55;99511.34;;;7.93;nan
9239;BME280;4654;43.242;27.976;2024-02-28T02:04:22;99512.81;;;7.84;nan
9239;BME280;4654;43.242;27.976;2024-02-28T02:06:51;99517.56;;;7.87;nan
9239;BME280;4654;43.242;27.976;2024-02-28T02:09:20;99520.59;;;7.79;nan
9239;BME280;4654;43.242;27.976;2024-02-28T02:11:47;99513.66;;;7.90;nan
9239;BME280;4654;43.242;27.976;2024-02-28T02:14:14;99518.41;;;7.93;nan
9239;BME280;4654;43.242;27.976;2024-02-28T02:16:41;99514.16;;;7.87;nan
9239;BME280;4654;43.242;27.976;2024-02-28T02:19:09;99525.41;;;7.87;nan
9239;BME280;4654;43.242;27.976;2024-02-28T02:21:41;99518.78;;;7.80;nan
9239;BME280;4654;43.242;27.976;2024-02-28T02:24:12;99523.41;;;7.73;nan
9239;BME280;4654;43.242;27.976;2024-02-28T02:26:39;99528.69;;;7.78;nan
9239;BME280;4654;43.242;27.976;2024-02-28T02:29:09;99529.66;;;7.72;nan
9239;BME280;4654;43.242;27.976;2024-02-28T02:31:36;99530.88;;;7.64;nan
9239;BME280;4654;43.242;27.976;2024-02-28T02:34:04;99526.69;;;7.63;nan
9239;BME280;4654;43.242;27.976;2024-02-28T02:36:31;99535.88;;;7.66;nan
9239;BME280;4654;43.242;27.976;2024-02-28T02:38:58;99530.59;;;7.61;nan
9239;BME280;4654;43.242;27.976;2024-02-28T02:41:27;99536.59;;;7.61;nan
9239;BME280;4654;43.242;27.976;2024-02-28T02:43:54;99547.06;;;7.61;nan
9239;BME280;4654;43.242;27.976;2024-02-28T02:46:22;99541.59;;;7.63;nan
9239;BME280;4654;43.242;27.976;2024-02-28T02:48:49;99533.50;;;7.64;nan
9239;BME280;4654;43.242;27.976;2024-02-28T02:51:18;99541.66;;;7.68;nan
9239;BME280;4654;43.242;27.976;2024-02-28T02:53:45;99537.78;;;7.70;nan
9239;BME280;4654;43.242;27.976;2024-02-28T02:56:13;99547.59;;;7.63;nan
9239;BME280;4654;43.242;27.976;2024-02-28T02:58:41;99543.63;;;7.56;nan
9239;BME280;4654;43.242;27.976;2024-02-28T03:01:09;99542.09;;;7.60;nan
9239;BME280;4654;43.242;27.976;2024-02-28T03:03:36;99548.47;;;7.47;nan
9239;BME280;4654;43.242;27.976;2024-02-28T03:06:04;99548.31;;;7.54;nan
9239;BME280;4654;43.242;27.976;2024-02-28T03:08:31;99549.88;;;7.55;nan
9239;BME280;4654;43.242;27.976;2024-02-28T03:10:59;99562.03;;;7.44;nan
9239;BME280;4654;43.242;27.976;2024-02-28T03:13:26;99560.66;;;7.42;nan
9239;BME280;4654;43.242;27.976;2024-02-28T03:15:55;99552.28;;;7.40;nan
9239;BME280;4654;43.242;27.976;2024-02-28T03:18:22;99553.75;;;7.31;nan
9239;BME280;4654;43.242;27.976;2024-02-28T03:20:49;99556.34;;;7.31;nan
9239;BME280;4654;43.242;27.976;2024-02-28T03:23:17;99551.31;;;7.25;nan
9239;BME280;4654;43.242;27.976;2024-02-28T03:25:44;99552.16;;;7.30;nan
9239;BME280;4654;43.242;27.976;2024-02-28T03:28:11;99556.97;;;7.38;nan
9239;BME280;4654;43.242;27.976;2024-02-28T03:30:38;99555.16;;;7.38;nan
9239;BME280;4654;43.242;27.976;2024-02-28T03:33:07;99557.72;;;7.33;nan
9239;BME280;4654;43.242;27.976;2024-02-28T03:35:35;99561.34;;;7.32;nan
9239;BME280;4654;43.242;27.976;2024-02-28T03:38:02;99562.38;;;7.31;nan
9239;BME280;4654;43.242;27.976;2024-02-28T03:40:31;99560.81;;;7.30;nan
9239;BME280;4654;43.242;27.976;2024-02-28T03:43:00;99569.47;;;7.36;nan
9239;BME280;4654;43.242;27.976;2024-02-28T03:45:28;99569.75;;;7.34;nan
9239;BME280;4654;43.242;27.976;2024-02-28T03:47:55;99565.97;;;7.26;nan
9239;BME280;4654;43.242;27.976;2024-02-28T03:50:24;99566.09;;;7.35;nan
9239;BME280;4654;43.242;27.976;2024-02-28T03:52:51;99568.44;;;7.37;nan
9239;BME280;4654;43.242;27.976;2024-02-28T03:55:18;99572.41;;;7.39;nan
9239;BME280;4654;43.242;27.976;2024-02-28T03:57:47;99565.97;;;7.26;nan
9239;BME280;4654;43.242;27.976;2024-02-28T04:00:17;99574.84;;;7.25;nan
9239;BME280;4654;43.242;27.976;2024-02-28T04:02:44;99572.69;;;7.22;nan
9239;BME280;4654;43.242;27.976;2024-02-28T04:05:11;99575.28;;;7.22;nan
9239;BME280;4654;43.242;27.976;2024-02-28T04:07:40;99578.44;;;7.02;nan
9239;BME280;4654;43.242;27.976;2024-02-28T04:10:08;99575.09;;;7.07;nan
9239;BME280;4654;43.242;27.976;2024-02-28T04:12:37;99570.69;;;6.91;nan
9239;BME280;4654;43.242;27.976;2024-02-28T04:15:05;99572.13;;;6.82;nan
9239;BME280;4654;43.242;27.976;2024-02-28T04:17:32;99578.44;;;6.69;nan
9239;BME280;4654;43.242;27.976;2024-02-28T04:19:59;99578.34;;;6.64;nan
9239;BME280;4654;43.242;27.976;2024-02-28T04:22:30;99579.19;;;6.53;nan
9239;BME280;4654;43.242;27.976;2024-02-28T04:24:59;99583.69;;;6.41;nan
9239;BME280;4654;43.242;27.976;2024-02-28T04:27:26;99576.19;;;6.28;nan
9239;BME280;4654;43.242;27.976;2024-02-28T04:29:53;99571.91;;;6.22;nan
9239;BME280;4654;43.242;27.976;2024-02-28T04:32:20;99580.06;;;6.14;nan
9239;BME280;4654;43.242;27.976;2024-02-28T04:34:48;99577.72;;;6.13;nan
9239;BME280;4654;43.242;27.976;2024-02-28T04:37:15;99573.53;;;6.12;nan
9239;BME280;4654;43.242;27.976;2024-02-28T04:39:42;99577.38;;;6.09;nan
9239;BME280;4654;43.242;27.976;2024-02-28T04:42:12;99577.94;;;6.11;nan
9239;BME280;4654;43.242;27.976;2024-02-28T04:44:39;99587.03;;;6.09;nan
9239;BME280;4654;43.242;27.976;2024-02-28T04:47:06;99580.31;;;6.13;nan
9239;BME280;4654;43.242;27.976;2024-02-28T04:49:36;99585.19;;;6.09;nan
9239;BME280;4654;43.242;27.976;2024-02-28T04:52:04;99595.00;;;6.02;nan
9239;BME280;4654;43.242;27.976;2024-02-28T04:54:32;99590.97;;;6.11;nan
9239;BME280;4654;43.242;27.976;2024-02-28T04:56:59;99593.06;;;6.26;nan
9239;BME280;4654;43.242;27.976;2024-02-28T04:59:28;99596.69;;;6.53;nan
9239;BME280;4654;43.242;27.976;2024-02-28T05:01:55;99602.97;;;6.85;nan
9239;BME280;4654;43.242;27.976;2024-02-28T05:04:23;99603.59;;;7.08;nan
9239;BME280;4654;43.242;27.976;2024-02-28T05:06:50;99605.94;;;7.26;nan
9239;BME280;4654;43.242;27.976;2024-02-28T05:09:17;99613.81;;;7.47;nan
9239;BME280;4654;43.242;27.976;2024-02-28T05:11:44;99608.78;;;7.62;nan
9239;BME280;4654;43.242;27.976;2024-02-28T05:14:11;99605.22;;;7.90;nan
9239;BME280;4654;43.242;27.976;2024-02-28T05:16:40;99607.88;;;8.16;nan
9239;BME280;4654;43.242;27.976;2024-02-28T05:19:07;99606.50;;;8.35;nan
9239;BME280;4654;43.242;27.976;2024-02-28T05:21:39;99610.63;;;8.53;nan
9239;BME280;4654;43.242;27.976;2024-02-28T05:24:07;99612.16;;;8.80;nan
9239;BME280;4654;43.242;27.976;2024-02-28T05:26:35;99603.19;;;9.07;nan
9239;BME280;4654;43.242;27.976;2024-02-28T05:29:03;99602.78;;;9.67;nan
9239;BME280;4654;43.242;27.976;2024-02-28T05:31:31;99610.91;;;10.31;nan
9239;BME280;4654;43.242;27.976;2024-02-28T05:34:00;99606.78;;;10.70;nan
9239;BME280;4654;43.242;27.976;2024-02-28T05:36:29;99615.94;;;11.18;nan
9239;BME280;4654;43.242;27.976;2024-02-28T05:38:59;99610.59;;;11.77;nan
9239;BME280;4654;43.242;27.976;2024-02-28T05:41:27;99606.50;;;12.05;nan
9239;BME280;4654;43.242;27.976;2024-02-28T05:43:54;99610.59;;;11.68;nan
9239;BME280;4654;43.242;27.976;2024-02-28T05:46:21;99612.22;;;11.59;nan
9239;BME280;4654;43.242;27.976;2024-02-28T05:48:49;99615.16;;;12.10;nan
9239;BME280;4654;43.242;27.976;2024-02-28T05:51:19;99608.84;;;12.88;nan
9239;BME280;4654;43.242;27.976;2024-02-28T05:53:48;99616.31;;;13.43;nan
9239;BME280;4654;43.242;27.976;2024-02-28T05:56:15;99610.59;;;13.83;nan
9239;BME280;4654;43.242;27.976;2024-02-28T05:58:45;99630.88;;;13.87;nan
9239;BME280;4654;43.242;27.976;2024-02-28T06:01:15;99626.59;;;13.91;nan
9239;BME280;4654;43.242;27.976;2024-02-28T06:03:42;99627.13;;;14.12;nan
9239;BME280;4654;43.242;27.976;2024-02-28T06:06:11;99625.41;;;14.02;nan
9239;BME280;4654;43.242;27.976;2024-02-28T06:08:40;99629.22;;;13.91;nan
9239;BME280;4654;43.242;27.976;2024-02-28T06:11:08;99627.75;;;14.27;nan
9239;BME280;4654;43.242;27.976;2024-02-28T06:13:35;99629.56;;;14.08;nan
9239;BME280;4654;43.242;27.976;2024-02-28T06:16:03;99629.00;;;14.11;nan
9239;BME280;4654;43.242;27.976;2024-02-28T06:18:30;99635.63;;;14.09;nan
9239;BME280;4654;43.242;27.976;2024-02-28T06:20:59;99633.03;;;14.27;nan
9239;BME280;4654;43.242;27.976;2024-02-28T06:23:26;99632.31;;;14.59;nan
9239;BME280;4654;43.242;27.976;2024-02-28T06:25:56;99633.47;;;15.21;nan
9239;BME280;4654;43.242;27.976;2024-02-28T06:28:24;99631.88;;;15.93;nan
9239;BME280;4654;43.242;27.976;2024-02-28T06:30:51;99635.44;;;16.50;nan
9239;BME280;4654;43.242;27.976;2024-02-28T06:33:19;99636.00;;;16.39;nan
9239;BME280;4654;43.242;27.976;2024-02-28T06:35:46;99648.47;;;15.85;nan
9239;BME280;4654;43.242;27.976;2024-02-28T06:38:13;99639.31;;;15.50;nan
9239;BME280;4654;43.242;27.976;2024-02-28T06:40:40;99644.78;;;14.77;nan
9239;BME280;4654;43.242;27.976;2024-02-28T06:43:09;99643.97;;;14.76;nan
9239;BME280;4654;43.242;27.976;2024-02-28T06:45:36;99639.75;;;14.57;nan
9239;BME280;4654;43.242;27.976;2024-02-28T06:48:04;99645.19;;;14.47;nan
9239;BME280;4654;43.242;27.976;2024-02-28T06:50:31;99648.97;;;13.99;nan
9239;BME280;4654;43.242;27.976;2024-02-28T06:52:58;99653.00;;;13.16;nan
9239;BME280;4654;43.242;27.976;2024-02-28T06:55:25;99664.22;;;12.98;nan
9239;BME280;4654;43.242;27.976;2024-02-28T06:57:52;99666.41;;;12.81;nan
9239;BME280;4654;43.242;27.976;2024-02-28T07:00:21;99669.72;;;13.02;nan
9239;BME280;4654;43.242;27.976;2024-02-28T07:02:49;99672.22;;;13.22;nan
9239;BME280;4654;43.242;27.976;2024-02-28T07:05:16;99664.06;;;13.18;nan
9239;BME280;4654;43.242;27.976;2024-02-28T07:07:43;99674.59;;;13.18;nan
9239;BME280;4654;43.242;27.976;2024-02-28T07:10:11;99677.94;;;12.95;nan
9239;BME280;4654;43.242;27.976;2024-02-28T07:12:38;99672.53;;;12.72;nan
9239;BME280;4654;43.242;27.976;2024-02-28T07:15:05;99678.94;;;12.61;nan
9239;BME280;4654;43.242;27.976;2024-02-28T07:17:34;99681.13;;;12.49;nan
9239;BME280;4654;43.242;27.976;2024-02-28T07:20:01;99680.41;;;12.33;nan
9239;BME280;4654;43.242;27.976;2024-02-28T07:22:29;99679.66;;;12.18;nan
9239;BME280;4654;43.242;27.976;2024-02-28T07:24:56;99674.72;;;12.01;nan
9239;BME280;4654;43.242;27.976;2024-02-28T07:27:23;99682.69;;;11.86;nan
9239;BME280;4654;43.242;27.976;2024-02-28T07:29:50;99677.94;;;11.88;nan
9239;BME280;4654;43.242;27.976;2024-02-28T07:32:17;99680.00;;;11.96;nan
9239;BME280;4654;43.242;27.976;2024-02-28T07:34:46;99681.59;;;11.97;nan
9239;BME280;4654;43.242;27.976;2024-02-28T07:37:13;99683.94;;;12.09;nan
9239;BME280;4654;43.242;27.976;2024-02-28T07:39:40;99682.56;;;12.21;nan
9239;BME280;4654;43.242;27.976;2024-02-28T07:42:08;99681.56;;;12.07;nan
9239;BME280;4654;43.242;27.976;2024-02-28T07:44:35;99677.34;;;12.06;nan
9239;BME280;4654;43.242;27.976;2024-02-28T07:47:02;99680.13;;;12.40;nan
9239;BME280;4654;43.242;27.976;2024-02-28T07:49:29;99676.72;;;12.78;nan
9239;BME280;4654;43.242;27.976;2024-02-28T07:51:58;99670.88;;;12.86;nan
9239;BME280;4654;43.242;27.976;2024-02-28T07:54:25;99666.19;;;13.16;nan
9239;BME280;4654;43.242;27.976;2024-02-28T07:56:53;99662.81;;;13.67;nan
9239;BME280;4654;43.242;27.976;2024-02-28T07:59:21;99665.59;;;14.46;nan
9239;BME280;4654;43.242;27.976;2024-02-28T08:01:48;99668.94;;;14.52;nan
9239;BME280;4654;43.242;27.976;2024-02-28T08:04:15;99670.31;;;14.68;nan
9239;BME280;4654;43.242;27.976;2024-02-28T08:06:43;99674.88;;;14.44;nan
9239;BME280;4654;43.242;27.976;2024-02-28T08:09:12;99665.22;;;14.89;nan
9239;BME280;4654;43.242;27.976;2024-02-28T08:11:41;99667.19;;;15.48;nan
9239;BME280;4654;43.242;27.976;2024-02-28T08:14:08;99672.13;;;15.54;nan
9239;BME280;4654;43.242;27.976;2024-02-28T08:16:35;99676.97;;;15.15;nan
9239;BME280;4654;43.242;27.976;2024-02-28T08:19:03;99677.28;;;14.40;nan
9239;BME280;4654;43.242;27.976;2024-02-28T08:21:30;99673.59;;;13.94;nan
9239;BME280;4654;43.242;27.976;2024-02-28T08:23:57;99674.16;;;13.91;nan
9239;BME280;4654;43.242;27.976;2024-02-28T08:26:26;99683.53;;;13.79;nan
9239;BME280;4654;43.242;27.976;2024-02-28T08:28:53;99678.00;;;13.52;nan
9239;BME280;4654;43.242;27.976;2024-02-28T08:31:20;99681.09;;;13.59;nan
9239;BME280;4654;43.242;27.976;2024-02-28T08:33:48;99684.13;;;13.71;nan
9239;BME280;4654;43.242;27.976;2024-02-28T08:36:15;99674.44;;;13.90;nan
9239;BME280;4654;43.242;27.976;2024-02-28T08:38:42;99683.19;;;13.85;nan
9239;BME280;4654;43.242;27.976;2024-02-28T08:41:10;99688.84;;;13.74;nan
9239;BME280;4654;43.242;27.976;2024-02-28T08:43:39;99688.22;;;13.87;nan
9239;BME280;4654;43.242;27.976;2024-02-28T08:46:07;99689.13;;;14.24;nan
9239;BME280;4654;43.242;27.976;2024-02-28T08:48:34;99681.50;;;14.78;nan
9239;BME280;4654;43.242;27.976;2024-02-28T08:51:03;99680.19;;;15.31;nan
9239;BME280;4654;43.242;27.976;2024-02-28T08:53:30;99686.66;;;15.70;nan
9239;BME280;4654;43.242;27.976;2024-02-28T08:55:58;99686.84;;;15.87;nan
9239;BME280;4654;43.242;27.976;2024-02-28T08:58:25;99677.44;;;16.22;nan
9239;BME280;4654;43.242;27.976;2024-02-28T09:00:54;99682.66;;;16.13;nan
9239;BME280;4654;43.242;27.976;2024-02-28T09:03:21;99689.19;;;16.29;nan
9239;BME280;4654;43.242;27.976;2024-02-28T09:05:48;99684.22;;;16.14;nan
9239;BME280;4654;43.242;27.976;2024-02-28T09:08:15;99684.69;;;16.03;nan
9239;BME280;4654;43.242;27.976;2024-02-28T09:10:42;99693.66;;;15.48;nan
9239;BME280;4654;43.242;27.976;2024-02-28T09:13:10;99692.38;;;15.32;nan
9239;BME280;4654;43.242;27.976;2024-02-28T09:15:37;99699.16;;;15.38;nan
9239;BME280;4654;43.242;27.976;2024-02-28T09:18:07;99700.50;;;15.35;nan
9239;BME280;4654;43.242;27.976;2024-02-28T09:20:35;99692.56;;;15.81;nan
9239;BME280;4654;43.242;27.976;2024-02-28T09:23:02;99694.34;;;15.40;nan
9239;BME280;4654;43.242;27.976;2024-02-28T09:25:30;99696.81;;;15.50;nan
9239;BME280;4654;43.242;27.976;2024-02-28T09:27:58;99701.66;;;15.61;nan
9239;BME280;4654;43.242;27.976;2024-02-28T09:30:25;99700.84;;;15.61;nan
9239;BME280;4654;43.242;27.976;2024-02-28T09:32:53;99701.81;;;15.51;nan
9239;BME280;4654;43.242;27.976;2024-02-28T09:35:21;99698.38;;;15.96;nan
9239;BME280;4654;43.242;27.976;2024-02-28T09:37:48;99703.16;;;15.81;nan
9239;BME280;4654;43.242;27.976;2024-02-28T09:40:16;99706.00;;;15.84;nan
9239;BME280;4654;43.242;27.976;2024-02-28T09:42:47;99695.59;;;15.88;nan
9239;BME280;4654;43.242;27.976;2024-02-28T09:45:17;99692.97;;;16.01;nan
9239;BME280;4654;43.242;27.976;2024-02-28T09:47:46;99697.31;;;16.73;nan
9239;BME280;4654;43.242;27.976;2024-02-28T09:50:13;99699.34;;;16.40;nan
9239;BME280;4654;43.242;27.976;2024-02-28T09:52:43;99706.00;;;15.98;nan
9239;BME280;4654;43.242;27.976;2024-02-28T09:55:10;99699.88;;;15.57;nan
9239;BME280;4654;43.242;27.976;2024-02-28T09:57:37;99696.09;;;15.12;nan
9239;BME280;4654;43.242;27.976;2024-02-28T10:00:06;99702.56;;;15.38;nan
9239;BME280;4654;43.242;27.976;2024-02-28T10:02:35;99689.03;;;16.26;nan
9239;BME280;4654;43.242;27.976;2024-02-28T10:05:05;99686.16;;;16.84;nan
9239;BME280;4654;43.242;27.976;2024-02-28T10:07:33;99689.03;;;16.88;nan
9239;BME280;4654;43.242;27.976;2024-02-28T10:10:01;99695.53;;;16.82;nan
9239;BME280;4654;43.242;27.976;2024-02-28T10:12:29;99688.69;;;17.25;nan
9239;BME280;4654;43.242;27.976;2024-02-28T10:14:56;99689.47;;;17.03;nan
9239;BME280;4654;43.242;27.976;2024-02-28T10:17:23;99695.00;;;16.31;nan
9239;BME280;4654;43.242;27.976;2024-02-28T10:19:51;99692.13;;;16.54;nan
9239;BME280;4654;43.242;27.976;2024-02-28T10:22:19;99684.44;;;16.80;nan
9239;BME280;4654;43.242;27.976;2024-02-28T10:24:46;99680.25;;;16.87;nan
9239;BME280;4654;43.242;27.976;2024-02-28T10:27:17;99692.34;;;16.44;nan
9239;BME280;4654;43.242;27.976;2024-02-28T10:29:45;99693.94;;;16.19;nan
9239;BME280;4654;43.242;27.976;2024-02-28T10:32:12;99686.97;;;16.09;nan
9239;BME280;4654;43.242;27.976;2024-02-28T10:34:39;99683.22;;;16.24;nan
9239;BME280;4654;43.242;27.976;2024-02-28T10:37:08;99680.09;;;16.35;nan
9239;BME280;4654;43.242;27.976;2024-02-28T10:39:37;99676.94;;;16.46;nan
9239;BME280;4654;43.242;27.976;2024-02-28T10:42:06;99675.66;;;16.30;nan
9239;BME280;4654;43.242;27.976;2024-02-28T10:44:36;99665.75;;;16.23;nan
9239;BME280;4654;43.242;27.976;2024-02-28T10:47:06;99681.97;;;15.81;nan
9239;BME280;4654;43.242;27.976;2024-02-28T10:49:34;99672.00;;;15.27;nan
9239;BME280;4654;43.242;27.976;2024-02-28T10:52:03;99679.50;;;15.07;nan
9239;BME280;4654;43.242;27.976;2024-02-28T10:54:37;99675.56;;;14.86;nan
9239;BME280;4654;43.242;27.976;2024-02-28T10:57:07;99678.50;;;15.03;nan
9239;BME280;4654;43.242;27.976;2024-02-28T10:59:37;99672.81;;;14.59;nan
9239;BME280;4654;43.242;27.976;2024-02-28T11:02:06;99673.44;;;14.33;nan
9239;BME280;4654;43.242;27.976;2024-02-28T11:04:33;99665.97;;;14.16;nan
9239;BME280;4654;43.242;27.976;2024-02-28T11:07:01;99662.19;;;14.22;nan
9239;BME280;4654;43.242;27.976;2024-02-28T11:09:29;99664.75;;;14.27;nan
9239;BME280;4654;43.242;27.976;2024-02-28T11:11:57;99662.25;;;14.17;nan
9239;BME280;4654;43.242;27.976;2024-02-28T11:14:25;99653.00;;;13.91;nan
9239;BME280;4654;43.242;27.976;2024-02-28T11:17:03;99666.28;;;13.86;nan
9239;BME280;4654;43.242;27.976;2024-02-28T11:19:32;99658.78;;;13.46;nan
9239;BME280;4654;43.242;27.976;2024-02-28T11:22:00;99657.44;;;13.49;nan
9239;BME280;4654;43.242;27.976;2024-02-28T11:24:31;99658.56;;;13.38;nan
9239;BME280;4654;43.242;27.976;2024-02-28T11:26:58;99654.75;;;13.26;nan
9239;BME280;4654;43.242;27.976;2024-02-28T11:29:26;99644.09;;;13.35;nan
9239;BME280;4654;43.242;27.976;2024-02-28T11:31:54;99650.44;;;13.34;nan
9239;BME280;4654;43.242;27.976;2024-02-28T11:34:23;99650.31;;;13.21;nan
9239;BME280;4654;43.242;27.976;2024-02-28T11:36:51;99651.63;;;13.24;nan
9239;BME280;4654;43.242;27.976;2024-02-28T11:39:18;99651.09;;;13.22;nan
9239;BME280;4654;43.242;27.976;2024-02-28T11:41:46;99642.28;;;13.31;nan
9239;BME280;4654;43.242;27.976;2024-02-28T11:44:15;99645.81;;;13.50;nan
9239;BME280;4654;43.242;27.976;2024-02-28T11:46:43;99644.25;;;13.72;nan
9239;BME280;4654;43.242;27.976;2024-02-28T11:49:11;99642.25;;;13.88;nan
9239;BME280;4654;43.242;27.976;2024-02-28T11:51:41;99629.09;;;13.83;nan
9239;BME280;4654;43.242;27.976;2024-02-28T11:54:09;99636.63;;;13.42;nan
9239;BME280;4654;43.242;27.976;2024-02-28T11:56:37;99628.53;;;13.34;nan
9239;BME280;4654;43.242;27.976;2024-02-28T11:59:05;99629.34;;;13.34;nan
9239;BME280;4654;43.242;27.976;2024-02-28T12:01:35;99622.78;;;13.27;nan
9239;BME280;4654;43.242;27.976;2024-02-28T12:04:03;99629.59;;;13.05;nan
9239;BME280;4654;43.242;27.976;2024-02-28T12:06:32;99632.75;;;12.68;nan
9239;BME280;4654;43.242;27.976;2024-02-28T12:09:01;99634.53;;;12.78;nan
9239;BME280;4654;43.242;27.976;2024-02-28T12:11:30;99619.97;;;12.85;nan
9239;BME280;4654;43.242;27.976;2024-02-28T12:13:57;99623.75;;;12.74;nan
9239;BME280;4654;43.242;27.976;2024-02-28T12:16:25;99624.28;;;12.71;nan
9239;BME280;4654;43.242;27.976;2024-02-28T12:18:53;99625.22;;;12.52;nan
9239;BME280;4654;43.242;27.976;2024-02-28T12:21:20;99624.53;;;12.31;nan
9239;BME280;4654;43.242;27.976;2024-02-28T12:23:49;99632.50;;;12.21;nan
9239;BME280;4654;43.242;27.976;2024-02-28T12:26:18;99635.75;;;11.98;nan
9239;BME280;4654;43.242;27.976;2024-02-28T12:28:45;99626.38;;;11.68;nan
9239;BME280;4654;43.242;27.976;2024-02-28T12:31:13;99627.22;;;11.48;nan
9239;BME280;4654;43.242;27.976;2024-02-28T12:33:40;99626.69;;;11.36;nan
9239;BME280;4654;43.242;27.976;2024-02-28T12:36:07;99634.09;;;11.29;nan
9239;BME280;4654;43.242;27.976;2024-02-28T12:38:35;99621.47;;;11.21;nan
9239;BME280;4654;43.242;27.976;2024-02-28T12:41:02;99635.13;;;11.28;nan
9239;BME280;4654;43.242;27.976;2024-02-28T12:43:31;99629.59;;;11.25;nan
9239;BME280;4654;43.242;27.976;2024-02-28T12:45:59;99617.50;;;11.24;nan
9239;BME280;4654;43.242;27.976;2024-02-28T12:48:26;99624.63;;;11.23;nan
9239;BME280;4654;43.242;27.976;2024-02-28T12:50:53;99624.88;;;11.22;nan
9239;BME280;4654;43.242;27.976;2024-02-28T12:53:21;99631.19;;;11.41;nan
9239;BME280;4654;43.242;27.976;2024-02-28T12:55:48;99619.34;;;11.33;nan
9239;BME280;4654;43.242;27.976;2024-02-28T12:58:15;99626.97;;;11.35;nan
9239;BME280;4654;43.242;27.976;2024-02-28T13:00:43;99616.44;;;11.40;nan
9239;BME280;4654;43.242;27.976;2024-02-28T13:03:11;99617.78;;;11.17;nan
9239;BME280;4654;43.242;27.976;2024-02-28T13:05:38;99608.84;;;11.03;nan
9239;BME280;4654;43.242;27.976;2024-02-28T13:08:06;99617.53;;;11.04;nan
9239;BME280;4654;43.242;27.976;2024-02-28T13:10:33;99621.50;;;11.06;nan
9239;BME280;4654;43.242;27.976;2024-02-28T13:13:02;99613.59;;;11.06;nan
9239;BME280;4654;43.242;27.976;2024-02-28T13:15:29;99624.38;;;10.95;nan
9239;BME280;4654;43.242;27.976;2024-02-28T13:17:57;99620.19;;;10.89;nan
9239;BME280;4654;43.242;27.976;2024-02-28T13:20:26;99600.19;;;10.78;nan
9239;BME280;4654;43.242;27.976;2024-02-28T13:22:54;99618.31;;;10.94;nan
9239;BME280;4654;43.242;27.976;2024-02-28T13:25:21;99618.31;;;10.94;nan
9239;BME280;4654;43.242;27.976;2024-02-28T13:27:48;99619.38;;;10.98;nan
9239;BME280;4654;43.242;27.976;2024-02-28T13:30:15;99615.19;;;10.77;nan
9239;BME280;4654;43.242;27.976;2024-02-28T13:32:42;99625.16;;;10.75;nan
9239;BME280;4654;43.242;27.976;2024-02-28T13:35:11;99609.88;;;10.62;nan
9239;BME280;4654;43.242;27.976;2024-02-28T13:37:39;99622.72;;;10.39;nan
9239;BME280;4654;43.242;27.976;2024-02-28T13:40:07;99616.38;;;10.15;nan